sensor_id;sensor_type;location;lat;lon;timestamp;P1;durP1;ratioP1;P2;durP2;ratioP2
7213;SDS011;3648;50.614;13.830;2022-11-18T00:00:27;22.73;;;18.13;;
7213;SDS011;3648;50.614;13.830;2022-11-18T00:02:54;22.80;;;17.90;;
7213;SDS011;3648;50.614;13.830;2022-11-18T00:05:21;22.13;;;18.37;;
7213;SDS011;3648;50.614;13.830;2022-11-18T00:07:48;22.80;;;18.43;;
7213;SDS011;3648;50.614;13.830;2022-11-18T00:10:17;24.67;;;19.80;;
7213;SDS011;3648;50.614;13.830;2022-11-18T00:12:44;25.60;;;19.23;;
7213;SDS011;3648;50.614;13.830;2022-11-18T00:15:28;23.07;;;19.10;;
7213;SDS011;3648;50.614;13.830;2022-11-18T00:17:55;23.17;;;17.87;;
7213;SDS011;3648;50.614;13.830;2022-11-18T00:20:22;22.70;;;18.60;;
7213;SDS011;3648;50.614;13.830;2022-11-18T00:22:49;22.87;;;18.37;;
7213;SDS011;3648;50.614;13.830;2022-11-18T00:25:17;25.30;;;17.90;;
7213;SDS011;3648;50.614;13.830;2022-11-18T00:27:44;22.00;;;17.77;;
7213;SDS011;3648;50.614;13.830;2022-11-18T00:30:11;26.77;;;19.40;;
7213;SDS011;3648;50.614;13.830;2022-11-18T00:32:38;24.60;;;18.50;;
7213;SDS011;3648;50.614;13.830;2022-11-18T00:35:05;25.53;;;18.60;;
7213;SDS011;3648;50.614;13.830;2022-11-18T00:37:33;25.60;;;18.93;;
7213;SDS011;3648;50.614;13.830;2022-11-18T00:40:00;28.50;;;20.97;;
7213;SDS011;3648;50.614;13.830;2022-11-18T00:42:28;26.50;;;20.17;;
7213;SDS011;3648;50.614;13.830;2022-11-18T00:45:24;24.43;;;19.07;;
7213;SDS011;3648;50.614;13.830;2022-11-18T00:47:50;26.27;;;21.23;;
7213;SDS011;3648;50.614;13.830;2022-11-18T00:50:17;25.57;;;20.17;;
7213;SDS011;3648;50.614;13.830;2022-11-18T00:52:45;25.77;;;19.60;;
7213;SDS011;3648;50.614;13.830;2022-11-18T00:55:12;26.50;;;20.23;;
7213;SDS011;3648;50.614;13.830;2022-11-18T00:57:40;27.27;;;20.97;;
7213;SDS011;3648;50.614;13.830;2022-11-18T01:00:08;28.33;;;20.40;;
7213;SDS011;3648;50.614;13.830;2022-11-18T01:02:36;26.10;;;19.40;;
7213;SDS011;3648;50.614;13.830;2022-11-18T01:05:03;26.77;;;20.80;;
7213;SDS011;3648;50.614;13.830;2022-11-18T01:07:30;23.93;;;18.80;;
7213;SDS011;3648;50.614;13.830;2022-11-18T01:09:57;28.57;;;20.33;;
7213;SDS011;3648;50.614;13.830;2022-11-18T01:12:24;27.33;;;19.17;;
7213;SDS011;3648;50.614;13.830;2022-11-18T01:15:10;24.23;;;18.00;;
7213;SDS011;3648;50.614;13.830;2022-11-18T01:17:37;24.53;;;17.80;;
7213;SDS011;3648;50.614;13.830;2022-11-18T01:20:04;26.43;;;19.77;;
7213;SDS011;3648;50.614;13.830;2022-11-18T01:22:32;28.53;;;21.20;;
7213;SDS011;3648;50.614;13.830;2022-11-18T01:24:58;28.03;;;19.50;;
7213;SDS011;3648;50.614;13.830;2022-11-18T01:27:25;26.80;;;19.23;;
7213;SDS011;3648;50.614;13.830;2022-11-18T01:29:52;26.60;;;19.03;;
7213;SDS011;3648;50.614;13.830;2022-11-18T01:32:21;30.27;;;20.67;;
7213;SDS011;3648;50.614;13.830;2022-11-18T01:34:48;28.47;;;20.73;;
7213;SDS011;3648;50.614;13.830;2022-11-18T01:37:15;28.23;;;20.27;;
7213;SDS011;3648;50.614;13.830;2022-11-18T01:39:41;28.60;;;20.67;;
7213;SDS011;3648;50.614;13.830;2022-11-18T01:42:11;26.80;;;19.17;;
7213;SDS011;3648;50.614;13.830;2022-11-18T01:44:55;27.40;;;20.67;;
7213;SDS011;3648;50.614;13.830;2022-11-18T01:47:31;27.60;;;20.50;;
7213;SDS011;3648;50.614;13.830;2022-11-18T01:50:02;28.93;;;21.30;;
7213;SDS011;3648;50.614;13.830;2022-11-18T01:52:30;28.40;;;19.67;;
7213;SDS011;3648;50.614;13.830;2022-11-18T01:55:01;29.77;;;20.80;;
7213;SDS011;3648;50.614;13.830;2022-11-18T01:57:32;33.10;;;21.57;;
7213;SDS011;3648;50.614;13.830;2022-11-18T02:00:00;29.53;;;20.87;;
7213;SDS011;3648;50.614;13.830;2022-11-18T02:02:31;31.90;;;20.87;;
7213;SDS011;3648;50.614;13.830;2022-11-18T02:05:01;26.50;;;18.90;;
7213;SDS011;3648;50.614;13.830;2022-11-18T02:07:30;28.60;;;20.07;;
7213;SDS011;3648;50.614;13.830;2022-11-18T02:09:58;27.70;;;19.00;;
7213;SDS011;3648;50.614;13.830;2022-11-18T02:12:30;25.47;;;19.17;;
7213;SDS011;3648;50.614;13.830;2022-11-18T02:14:57;27.57;;;19.60;;
7213;SDS011;3648;50.614;13.830;2022-11-18T02:17:30;26.83;;;20.23;;
7213;SDS011;3648;50.614;13.830;2022-11-18T02:20:12;28.90;;;19.37;;
7213;SDS011;3648;50.614;13.830;2022-11-18T02:23:04;28.23;;;20.00;;
7213;SDS011;3648;50.614;13.830;2022-11-18T02:28:57;27.67;;;20.07;;
7213;SDS011;3648;50.614;13.830;2022-11-18T02:31:30;28.97;;;20.27;;
7213;SDS011;3648;50.614;13.830;2022-11-18T02:34:00;30.47;;;20.37;;
7213;SDS011;3648;50.614;13.830;2022-11-18T02:36:35;32.67;;;21.83;;
7213;SDS011;3648;50.614;13.830;2022-11-18T02:39:06;30.23;;;20.47;;
7213;SDS011;3648;50.614;13.830;2022-11-18T02:41:35;31.67;;;21.00;;
7213;SDS011;3648;50.614;13.830;2022-11-18T02:44:08;32.23;;;21.10;;
7213;SDS011;3648;50.614;13.830;2022-11-18T02:46:38;27.90;;;19.83;;
7213;SDS011;3648;50.614;13.830;2022-11-18T02:49:09;30.77;;;20.40;;
7213;SDS011;3648;50.614;13.830;2022-11-18T02:51:41;28.27;;;19.47;;
7213;SDS011;3648;50.614;13.830;2022-11-18T02:54:10;31.57;;;19.07;;
7213;SDS011;3648;50.614;13.830;2022-11-18T02:56:39;30.70;;;20.77;;
7213;SDS011;3648;50.614;13.830;2022-11-18T02:59:08;28.23;;;19.83;;
7213;SDS011;3648;50.614;13.830;2022-11-18T03:01:35;28.40;;;18.97;;
7213;SDS011;3648;50.614;13.830;2022-11-18T03:04:02;30.30;;;20.20;;
7213;SDS011;3648;50.614;13.830;2022-11-18T03:06:30;29.57;;;19.13;;
7213;SDS011;3648;50.614;13.830;2022-11-18T03:09:04;27.80;;;19.93;;
7213;SDS011;3648;50.614;13.830;2022-11-18T03:11:38;27.27;;;19.00;;
7213;SDS011;3648;50.614;13.830;2022-11-18T03:14:20;25.10;;;17.77;;
7213;SDS011;3648;50.614;13.830;2022-11-18T03:16:55;33.03;;;20.47;;
7213;SDS011;3648;50.614;13.830;2022-11-18T03:19:28;35.73;;;21.60;;
7213;SDS011;3648;50.614;13.830;2022-11-18T03:22:07;28.80;;;18.90;;
7213;SDS011;3648;50.614;13.830;2022-11-18T03:24:41;27.17;;;18.97;;
7213;SDS011;3648;50.614;13.830;2022-11-18T03:27:15;33.90;;;21.30;;
7213;SDS011;3648;50.614;13.830;2022-11-18T03:29:50;29.23;;;20.00;;
7213;SDS011;3648;50.614;13.830;2022-11-18T03:32:25;30.87;;;19.20;;
7213;SDS011;3648;50.614;13.830;2022-11-18T03:34:56;32.23;;;20.53;;
7213;SDS011;3648;50.614;13.830;2022-11-18T03:37:27;31.87;;;20.27;;
7213;SDS011;3648;50.614;13.830;2022-11-18T03:39:58;31.23;;;19.97;;
7213;SDS011;3648;50.614;13.830;2022-11-18T03:42:30;30.83;;;19.43;;
7213;SDS011;3648;50.614;13.830;2022-11-18T03:45:04;29.10;;;18.97;;
7213;SDS011;3648;50.614;13.830;2022-11-18T03:47:36;29.17;;;19.67;;
7213;SDS011;3648;50.614;13.830;2022-11-18T03:50:07;34.80;;;20.57;;
7213;SDS011;3648;50.614;13.830;2022-11-18T03:52:39;33.60;;;20.17;;
7213;SDS011;3648;50.614;13.830;2022-11-18T03:55:09;31.70;;;20.40;;
7213;SDS011;3648;50.614;13.830;2022-11-18T03:57:42;29.20;;;19.37;;
7213;SDS011;3648;50.614;13.830;2022-11-18T04:00:15;32.93;;;21.40;;
7213;SDS011;3648;50.614;13.830;2022-11-18T04:02:44;35.40;;;21.23;;
7213;SDS011;3648;50.614;13.830;2022-11-18T04:05:14;31.57;;;19.03;;
7213;SDS011;3648;50.614;13.830;2022-11-18T04:07:45;32.20;;;19.03;;
7213;SDS011;3648;50.614;13.830;2022-11-18T04:10:20;33.13;;;19.57;;
7213;SDS011;3648;50.614;13.830;2022-11-18T04:12:50;29.83;;;18.83;;
7213;SDS011;3648;50.614;13.830;2022-11-18T04:15:25;30.07;;;19.13;;
7213;SDS011;3648;50.614;13.830;2022-11-18T04:17:55;26.23;;;18.47;;
7213;SDS011;3648;50.614;13.830;2022-11-18T04:20:22;28.80;;;18.37;;
7213;SDS011;3648;50.614;13.830;2022-11-18T04:22:49;31.90;;;19.70;;
7213;SDS011;3648;50.614;13.830;2022-11-18T04:25:16;30.17;;;20.03;;
7213;SDS011;3648;50.614;13.830;2022-11-18T04:27:43;29.13;;;19.60;;
7213;SDS011;3648;50.614;13.830;2022-11-18T04:30:10;29.40;;;17.90;;
7213;SDS011;3648;50.614;13.830;2022-11-18T04:32:39;28.10;;;18.67;;
7213;SDS011;3648;50.614;13.830;2022-11-18T04:35:06;26.20;;;18.60;;
7213;SDS011;3648;50.614;13.830;2022-11-18T04:37:33;30.00;;;17.87;;
7213;SDS011;3648;50.614;13.830;2022-11-18T04:40:00;29.60;;;19.13;;
7213;SDS011;3648;50.614;13.830;2022-11-18T04:42:27;28.63;;;18.87;;
7213;SDS011;3648;50.614;13.830;2022-11-18T04:44:54;28.30;;;18.13;;
7213;SDS011;3648;50.614;13.830;2022-11-18T04:47:21;28.27;;;19.03;;
7213;SDS011;3648;50.614;13.830;2022-11-18T04:49:49;29.17;;;19.30;;
7213;SDS011;3648;50.614;13.830;2022-11-18T04:52:16;28.37;;;18.87;;
7213;SDS011;3648;50.614;13.830;2022-11-18T04:54:43;29.30;;;19.20;;
7213;SDS011;3648;50.614;13.830;2022-11-18T04:57:10;31.47;;;18.60;;
7213;SDS011;3648;50.614;13.830;2022-11-18T04:59:37;28.10;;;18.27;;
7213;SDS011;3648;50.614;13.830;2022-11-18T05:02:04;31.77;;;18.30;;
7213;SDS011;3648;50.614;13.830;2022-11-18T05:04:32;32.60;;;19.50;;
7213;SDS011;3648;50.614;13.830;2022-11-18T05:07:01;31.73;;;19.23;;
7213;SDS011;3648;50.614;13.830;2022-11-18T05:09:29;29.90;;;18.43;;
7213;SDS011;3648;50.614;13.830;2022-11-18T05:11:56;32.47;;;19.60;;
7213;SDS011;3648;50.614;13.830;2022-11-18T05:14:40;30.83;;;18.47;;
7213;SDS011;3648;50.614;13.830;2022-11-18T05:17:08;30.33;;;17.50;;
7213;SDS011;3648;50.614;13.830;2022-11-18T05:19:36;31.23;;;18.17;;
7213;SDS011;3648;50.614;13.830;2022-11-18T05:22:05;29.90;;;18.37;;
7213;SDS011;3648;50.614;13.830;2022-11-18T05:24:32;29.37;;;16.67;;
7213;SDS011;3648;50.614;13.830;2022-11-18T05:26:59;29.13;;;17.63;;
7213;SDS011;3648;50.614;13.830;2022-11-18T05:29:26;28.60;;;17.43;;
7213;SDS011;3648;50.614;13.830;2022-11-18T05:31:53;30.27;;;17.87;;
7213;SDS011;3648;50.614;13.830;2022-11-18T05:34:20;30.70;;;17.77;;
7213;SDS011;3648;50.614;13.830;2022-11-18T05:36:47;29.23;;;18.10;;
7213;SDS011;3648;50.614;13.830;2022-11-18T05:39:15;28.07;;;18.67;;
7213;SDS011;3648;50.614;13.830;2022-11-18T05:41:43;32.57;;;19.43;;
7213;SDS011;3648;50.614;13.830;2022-11-18T05:44:27;27.77;;;17.17;;
7213;SDS011;3648;50.614;13.830;2022-11-18T05:46:54;29.90;;;19.50;;
7213;SDS011;3648;50.614;13.830;2022-11-18T05:49:21;31.43;;;18.80;;
7213;SDS011;3648;50.614;13.830;2022-11-18T05:51:48;31.63;;;19.10;;
7213;SDS011;3648;50.614;13.830;2022-11-18T05:54:16;30.43;;;18.33;;
7213;SDS011;3648;50.614;13.830;2022-11-18T05:56:46;31.53;;;17.60;;
7213;SDS011;3648;50.614;13.830;2022-11-18T05:59:13;30.13;;;17.20;;
7213;SDS011;3648;50.614;13.830;2022-11-18T06:01:42;28.37;;;18.10;;
7213;SDS011;3648;50.614;13.830;2022-11-18T06:04:13;31.37;;;19.40;;
7213;SDS011;3648;50.614;13.830;2022-11-18T06:06:43;28.30;;;18.03;;
7213;SDS011;3648;50.614;13.830;2022-11-18T06:09:14;30.43;;;17.13;;
7213;SDS011;3648;50.614;13.830;2022-11-18T06:11:47;34.17;;;17.30;;
7213;SDS011;3648;50.614;13.830;2022-11-18T06:14:19;32.90;;;18.73;;
7213;SDS011;3648;50.614;13.830;2022-11-18T06:16:51;32.07;;;17.97;;
7213;SDS011;3648;50.614;13.830;2022-11-18T06:19:24;31.97;;;18.10;;
7213;SDS011;3648;50.614;13.830;2022-11-18T06:21:51;34.97;;;18.47;;
7213;SDS011;3648;50.614;13.830;2022-11-18T06:24:20;33.20;;;18.87;;
7213;SDS011;3648;50.614;13.830;2022-11-18T06:26:47;26.17;;;16.13;;
7213;SDS011;3648;50.614;13.830;2022-11-18T06:29:15;31.03;;;17.97;;
7213;SDS011;3648;50.614;13.830;2022-11-18T06:31:44;36.43;;;18.90;;
7213;SDS011;3648;50.614;13.830;2022-11-18T06:34:11;32.60;;;17.83;;
7213;SDS011;3648;50.614;13.830;2022-11-18T06:36:38;33.17;;;18.87;;
7213;SDS011;3648;50.614;13.830;2022-11-18T06:39:05;34.77;;;18.93;;
7213;SDS011;3648;50.614;13.830;2022-11-18T06:41:34;39.97;;;20.63;;
7213;SDS011;3648;50.614;13.830;2022-11-18T06:44:01;38.53;;;20.07;;
7213;SDS011;3648;50.614;13.830;2022-11-18T06:46:27;34.23;;;18.30;;
7213;SDS011;3648;50.614;13.830;2022-11-18T06:49:11;35.30;;;18.37;;
7213;SDS011;3648;50.614;13.830;2022-11-18T06:51:38;34.00;;;20.00;;
7213;SDS011;3648;50.614;13.830;2022-11-18T06:54:06;37.40;;;19.23;;
7213;SDS011;3648;50.614;13.830;2022-11-18T06:56:35;35.37;;;20.17;;
7213;SDS011;3648;50.614;13.830;2022-11-18T06:59:03;33.90;;;20.33;;
7213;SDS011;3648;50.614;13.830;2022-11-18T07:01:32;34.90;;;19.67;;
7213;SDS011;3648;50.614;13.830;2022-11-18T07:04:01;35.43;;;20.10;;
7213;SDS011;3648;50.614;13.830;2022-11-18T07:06:29;34.87;;;19.33;;
7213;SDS011;3648;50.614;13.830;2022-11-18T07:08:58;40.23;;;20.30;;
7213;SDS011;3648;50.614;13.830;2022-11-18T07:11:26;38.27;;;20.40;;
7213;SDS011;3648;50.614;13.830;2022-11-18T07:13:55;33.00;;;19.20;;
7213;SDS011;3648;50.614;13.830;2022-11-18T07:16:22;38.20;;;20.73;;
7213;SDS011;3648;50.614;13.830;2022-11-18T07:18:51;36.47;;;21.00;;
7213;SDS011;3648;50.614;13.830;2022-11-18T07:21:19;37.83;;;20.40;;
7213;SDS011;3648;50.614;13.830;2022-11-18T07:23:47;38.00;;;20.83;;
7213;SDS011;3648;50.614;13.830;2022-11-18T07:26:15;36.30;;;19.67;;
7213;SDS011;3648;50.614;13.830;2022-11-18T07:28:43;38.40;;;20.10;;
7213;SDS011;3648;50.614;13.830;2022-11-18T07:31:12;38.10;;;20.60;;
7213;SDS011;3648;50.614;13.830;2022-11-18T07:33:43;35.23;;;19.80;;
7213;SDS011;3648;50.614;13.830;2022-11-18T07:36:11;35.87;;;19.60;;
7213;SDS011;3648;50.614;13.830;2022-11-18T07:38:40;33.87;;;19.53;;
7213;SDS011;3648;50.614;13.830;2022-11-18T07:41:08;37.43;;;20.17;;
7213;SDS011;3648;50.614;13.830;2022-11-18T07:43:37;37.93;;;20.53;;
7213;SDS011;3648;50.614;13.830;2022-11-18T07:46:08;40.80;;;22.17;;
7213;SDS011;3648;50.614;13.830;2022-11-18T07:48:38;37.83;;;20.67;;
7213;SDS011;3648;50.614;13.830;2022-11-18T07:51:05;40.40;;;20.37;;
7213;SDS011;3648;50.614;13.830;2022-11-18T07:53:32;37.07;;;20.87;;
7213;SDS011;3648;50.614;13.830;2022-11-18T07:56:00;34.67;;;20.10;;
7213;SDS011;3648;50.614;13.830;2022-11-18T07:58:27;37.60;;;20.83;;
7213;SDS011;3648;50.614;13.830;2022-11-18T08:00:54;35.43;;;19.63;;
7213;SDS011;3648;50.614;13.830;2022-11-18T08:03:23;34.37;;;19.37;;
7213;SDS011;3648;50.614;13.830;2022-11-18T08:05:53;38.60;;;20.00;;
7213;SDS011;3648;50.614;13.830;2022-11-18T08:08:24;35.87;;;19.70;;
7213;SDS011;3648;50.614;13.830;2022-11-18T08:10:54;35.27;;;19.20;;
7213;SDS011;3648;50.614;13.830;2022-11-18T08:13:21;33.27;;;18.73;;
7213;SDS011;3648;50.614;13.830;2022-11-18T08:15:48;32.77;;;19.00;;
7213;SDS011;3648;50.614;13.830;2022-11-18T08:18:15;34.63;;;19.00;;
7213;SDS011;3648;50.614;13.830;2022-11-18T08:20:42;32.87;;;19.03;;
7213;SDS011;3648;50.614;13.830;2022-11-18T08:23:11;33.10;;;20.57;;
7213;SDS011;3648;50.614;13.830;2022-11-18T08:25:40;37.60;;;18.97;;
7213;SDS011;3648;50.614;13.830;2022-11-18T08:28:08;35.50;;;20.20;;
7213;SDS011;3648;50.614;13.830;2022-11-18T08:30:35;39.00;;;21.33;;
7213;SDS011;3648;50.614;13.830;2022-11-18T08:33:03;40.70;;;21.57;;
7213;SDS011;3648;50.614;13.830;2022-11-18T08:35:31;34.67;;;18.47;;
7213;SDS011;3648;50.614;13.830;2022-11-18T08:37:58;33.80;;;18.37;;
7213;SDS011;3648;50.614;13.830;2022-11-18T08:40:27;31.83;;;18.57;;
7213;SDS011;3648;50.614;13.830;2022-11-18T08:42:54;30.83;;;18.37;;
7213;SDS011;3648;50.614;13.830;2022-11-18T08:45:21;30.70;;;17.73;;
7213;SDS011;3648;50.614;13.830;2022-11-18T08:47:48;28.33;;;16.80;;
7213;SDS011;3648;50.614;13.830;2022-11-18T08:50:15;31.07;;;18.27;;
7213;SDS011;3648;50.614;13.830;2022-11-18T08:52:42;29.53;;;17.57;;
7213;SDS011;3648;50.614;13.830;2022-11-18T08:55:09;28.33;;;17.40;;
7213;SDS011;3648;50.614;13.830;2022-11-18T08:57:38;28.17;;;17.90;;
7213;SDS011;3648;50.614;13.830;2022-11-18T09:00:06;30.07;;;17.53;;
7213;SDS011;3648;50.614;13.830;2022-11-18T09:02:34;32.90;;;18.43;;
7213;SDS011;3648;50.614;13.830;2022-11-18T09:05:01;28.77;;;16.93;;
7213;SDS011;3648;50.614;13.830;2022-11-18T09:07:28;27.63;;;17.70;;
7213;SDS011;3648;50.614;13.830;2022-11-18T09:09:55;28.07;;;17.73;;
7213;SDS011;3648;50.614;13.830;2022-11-18T09:12:22;27.73;;;18.30;;
7213;SDS011;3648;50.614;13.830;2022-11-18T09:14:50;26.10;;;17.57;;
7213;SDS011;3648;50.614;13.830;2022-11-18T09:17:17;32.90;;;19.47;;
7213;SDS011;3648;50.614;13.830;2022-11-18T09:19:44;27.33;;;16.70;;
7213;SDS011;3648;50.614;13.830;2022-11-18T09:22:11;28.73;;;17.97;;
7213;SDS011;3648;50.614;13.830;2022-11-18T09:24:39;29.13;;;18.23;;
7213;SDS011;3648;50.614;13.830;2022-11-18T09:27:07;31.73;;;19.43;;
7213;SDS011;3648;50.614;13.830;2022-11-18T09:29:34;32.23;;;17.80;;
7213;SDS011;3648;50.614;13.830;2022-11-18T09:32:03;31.50;;;20.03;;
7213;SDS011;3648;50.614;13.830;2022-11-18T09:34:30;28.57;;;18.60;;
7213;SDS011;3648;50.614;13.830;2022-11-18T09:37:01;34.23;;;19.60;;
7213;SDS011;3648;50.614;13.830;2022-11-18T09:39:30;29.93;;;18.90;;
7213;SDS011;3648;50.614;13.830;2022-11-18T09:42:00;30.87;;;19.70;;
7213;SDS011;3648;50.614;13.830;2022-11-18T09:45:01;27.73;;;17.80;;
7213;SDS011;3648;50.614;13.830;2022-11-18T09:47:37;27.63;;;18.33;;
7213;SDS011;3648;50.614;13.830;2022-11-18T09:50:05;24.73;;;17.90;;
7213;SDS011;3648;50.614;13.830;2022-11-18T09:52:38;28.27;;;17.73;;
7213;SDS011;3648;50.614;13.830;2022-11-18T09:55:10;27.17;;;18.03;;
7213;SDS011;3648;50.614;13.830;2022-11-18T09:57:39;22.67;;;17.23;;
7213;SDS011;3648;50.614;13.830;2022-11-18T10:00:13;22.97;;;15.40;;
7213;SDS011;3648;50.614;13.830;2022-11-18T10:02:47;25.37;;;18.13;;
7213;SDS011;3648;50.614;13.830;2022-11-18T10:05:21;19.10;;;14.00;;
7213;SDS011;3648;50.614;13.830;2022-11-18T10:07:54;15.47;;;12.03;;
7213;SDS011;3648;50.614;13.830;2022-11-18T10:10:29;20.00;;;15.30;;
7213;SDS011;3648;50.614;13.830;2022-11-18T10:13:07;23.27;;;17.17;;
7213;SDS011;3648;50.614;13.830;2022-11-18T10:15:44;20.27;;;14.60;;
7213;SDS011;3648;50.614;13.830;2022-11-18T10:18:23;30.97;;;22.17;;
7213;SDS011;3648;50.614;13.830;2022-11-18T10:20:58;21.60;;;16.97;;
7213;SDS011;3648;50.614;13.830;2022-11-18T10:23:30;18.57;;;13.13;;
7213;SDS011;3648;50.614;13.830;2022-11-18T10:26:00;14.87;;;12.07;;
7213;SDS011;3648;50.614;13.830;2022-11-18T10:28:28;16.00;;;12.33;;
7213;SDS011;3648;50.614;13.830;2022-11-18T10:31:02;12.93;;;10.67;;
7213;SDS011;3648;50.614;13.830;2022-11-18T10:33:32;14.33;;;11.13;;
7213;SDS011;3648;50.614;13.830;2022-11-18T10:36:07;12.43;;;10.53;;
7213;SDS011;3648;50.614;13.830;2022-11-18T10:38:37;13.00;;;10.27;;
7213;SDS011;3648;50.614;13.830;2022-11-18T10:41:04;12.27;;;9.97;;
7213;SDS011;3648;50.614;13.830;2022-11-18T10:43:41;11.63;;;9.73;;
7213;SDS011;3648;50.614;13.830;2022-11-18T10:46:23;9.60;;;7.50;;
7213;SDS011;3648;50.614;13.830;2022-11-18T10:52:03;9.30;;;7.70;;
7213;SDS011;3648;50.614;13.830;2022-11-18T10:54:33;5.63;;;5.03;;
7213;SDS011;3648;50.614;13.830;2022-11-18T10:57:02;7.23;;;5.73;;
7213;SDS011;3648;50.614;13.830;2022-11-18T10:59:32;5.17;;;4.67;;
7213;SDS011;3648;50.614;13.830;2022-11-18T11:02:10;4.90;;;4.40;;
7213;SDS011;3648;50.614;13.830;2022-11-18T11:04:43;5.00;;;4.47;;
7213;SDS011;3648;50.614;13.830;2022-11-18T11:10:05;5.50;;;4.80;;
7213;SDS011;3648;50.614;13.830;2022-11-18T11:12:47;5.33;;;4.83;;
7213;SDS011;3648;50.614;13.830;2022-11-18T11:15:20;6.43;;;5.77;;
7213;SDS011;3648;50.614;13.830;2022-11-18T11:17:53;6.27;;;5.67;;
7213;SDS011;3648;50.614;13.830;2022-11-18T11:20:39;6.97;;;6.20;;
7213;SDS011;3648;50.614;13.830;2022-11-18T11:23:07;7.30;;;6.60;;
7213;SDS011;3648;50.614;13.830;2022-11-18T11:25:36;9.13;;;7.47;;
7213;SDS011;3648;50.614;13.830;2022-11-18T11:28:08;8.53;;;6.67;;
7213;SDS011;3648;50.614;13.830;2022-11-18T11:30:45;11.43;;;7.97;;
7213;SDS011;3648;50.614;13.830;2022-11-18T11:33:25;9.70;;;8.33;;
7213;SDS011;3648;50.614;13.830;2022-11-18T11:36:03;11.03;;;9.73;;
7213;SDS011;3648;50.614;13.830;2022-11-18T11:38:54;12.40;;;9.17;;
7213;SDS011;3648;50.614;13.830;2022-11-18T11:41:29;11.37;;;9.87;;
7213;SDS011;3648;50.614;13.830;2022-11-18T11:44:14;11.83;;;10.47;;
7213;SDS011;3648;50.614;13.830;2022-11-18T11:46:53;14.57;;;11.73;;
7213;SDS011;3648;50.614;13.830;2022-11-18T11:49:48;14.17;;;11.50;;
7213;SDS011;3648;50.614;13.830;2022-11-18T11:52:23;15.83;;;12.50;;
7213;SDS011;3648;50.614;13.830;2022-11-18T11:55:00;12.47;;;10.50;;
7213;SDS011;3648;50.614;13.830;2022-11-18T11:57:41;13.13;;;11.40;;
7213;SDS011;3648;50.614;13.830;2022-11-18T12:00:19;13.27;;;11.37;;
7213;SDS011;3648;50.614;13.830;2022-11-18T12:02:55;14.70;;;12.10;;
7213;SDS011;3648;50.614;13.830;2022-11-18T12:05:32;14.10;;;11.63;;
7213;SDS011;3648;50.614;13.830;2022-11-18T12:08:03;16.70;;;13.17;;
7213;SDS011;3648;50.614;13.830;2022-11-18T12:10:37;18.00;;;14.83;;
7213;SDS011;3648;50.614;13.830;2022-11-18T12:18:52;14.53;;;12.23;;
7213;SDS011;3648;50.614;13.830;2022-11-18T12:24:29;13.57;;;11.07;;
7213;SDS011;3648;50.614;13.830;2022-11-18T12:27:00;12.97;;;10.77;;
7213;SDS011;3648;50.614;13.830;2022-11-18T12:29:32;13.00;;;10.17;;
7213;SDS011;3648;50.614;13.830;2022-11-18T12:32:10;13.50;;;10.17;;
7213;SDS011;3648;50.614;13.830;2022-11-18T12:34:54;11.27;;;9.13;;
7213;SDS011;3648;50.614;13.830;2022-11-18T12:40:34;9.60;;;7.73;;
7213;SDS011;3648;50.614;13.830;2022-11-18T12:43:04;8.50;;;7.60;;
7213;SDS011;3648;50.614;13.830;2022-11-18T12:45:58;8.73;;;6.83;;
7213;SDS011;3648;50.614;13.830;2022-11-18T12:48:32;8.43;;;6.93;;
7213;SDS011;3648;50.614;13.830;2022-11-18T12:51:39;7.50;;;6.37;;
7213;SDS011;3648;50.614;13.830;2022-11-18T12:54:24;7.70;;;6.90;;
7213;SDS011;3648;50.614;13.830;2022-11-18T12:56:54;7.97;;;7.07;;
7213;SDS011;3648;50.614;13.830;2022-11-18T12:59:29;8.00;;;7.13;;
7213;SDS011;3648;50.614;13.830;2022-11-18T13:02:01;9.47;;;7.87;;
7213;SDS011;3648;50.614;13.830;2022-11-18T13:04:40;7.47;;;6.63;;
7213;SDS011;3648;50.614;13.830;2022-11-18T13:07:10;7.67;;;6.63;;
7213;SDS011;3648;50.614;13.830;2022-11-18T13:09:52;7.47;;;5.67;;
7213;SDS011;3648;50.614;13.830;2022-11-18T13:12:23;5.60;;;4.90;;
7213;SDS011;3648;50.614;13.830;2022-11-18T13:14:54;4.97;;;4.47;;
7213;SDS011;3648;50.614;13.830;2022-11-18T13:17:39;5.47;;;4.10;;
7213;SDS011;3648;50.614;13.830;2022-11-18T13:20:20;4.70;;;4.17;;
7213;SDS011;3648;50.614;13.830;2022-11-18T13:22:52;5.17;;;4.20;;
7213;SDS011;3648;50.614;13.830;2022-11-18T13:25:37;6.17;;;4.77;;
7213;SDS011;3648;50.614;13.830;2022-11-18T13:28:12;5.93;;;4.87;;
7213;SDS011;3648;50.614;13.830;2022-11-18T13:30:49;7.57;;;5.40;;
7213;SDS011;3648;50.614;13.830;2022-11-18T13:33:19;6.33;;;5.27;;
7213;SDS011;3648;50.614;13.830;2022-11-18T13:35:46;6.40;;;5.67;;
7213;SDS011;3648;50.614;13.830;2022-11-18T13:38:17;6.83;;;5.87;;
7213;SDS011;3648;50.614;13.830;2022-11-18T13:40:47;6.63;;;5.40;;
7213;SDS011;3648;50.614;13.830;2022-11-18T13:43:41;9.13;;;6.63;;
7213;SDS011;3648;50.614;13.830;2022-11-18T13:46:09;8.23;;;7.17;;
7213;SDS011;3648;50.614;13.830;2022-11-18T13:48:44;10.90;;;9.20;;
7213;SDS011;3648;50.614;13.830;2022-11-18T13:51:14;10.87;;;9.23;;
7213;SDS011;3648;50.614;13.830;2022-11-18T13:53:43;12.77;;;10.20;;
7213;SDS011;3648;50.614;13.830;2022-11-18T13:56:14;14.33;;;10.87;;
7213;SDS011;3648;50.614;13.830;2022-11-18T13:58:50;16.33;;;13.10;;
7213;SDS011;3648;50.614;13.830;2022-11-18T14:01:21;18.53;;;13.73;;
7213;SDS011;3648;50.614;13.830;2022-11-18T14:03:49;17.73;;;14.23;;
7213;SDS011;3648;50.614;13.830;2022-11-18T14:09:05;21.97;;;15.70;;
7213;SDS011;3648;50.614;13.830;2022-11-18T14:11:41;21.20;;;15.67;;
7213;SDS011;3648;50.614;13.830;2022-11-18T14:14:11;23.73;;;17.53;;
7213;SDS011;3648;50.614;13.830;2022-11-18T14:16:53;24.00;;;18.63;;
7213;SDS011;3648;50.614;13.830;2022-11-18T14:19:30;25.23;;;19.60;;
7213;SDS011;3648;50.614;13.830;2022-11-18T14:22:01;27.47;;;20.37;;
7213;SDS011;3648;50.614;13.830;2022-11-18T14:24:30;25.47;;;18.53;;
7213;SDS011;3648;50.614;13.830;2022-11-18T14:26:57;26.30;;;19.80;;
7213;SDS011;3648;50.614;13.830;2022-11-18T14:29:26;26.43;;;19.50;;
7213;SDS011;3648;50.614;13.830;2022-11-18T14:32:03;28.70;;;20.63;;
7213;SDS011;3648;50.614;13.830;2022-11-18T14:34:38;26.30;;;19.07;;
7213;SDS011;3648;50.614;13.830;2022-11-18T14:37:08;27.73;;;20.60;;
7213;SDS011;3648;50.614;13.830;2022-11-18T14:39:37;27.17;;;19.93;;
7213;SDS011;3648;50.614;13.830;2022-11-18T14:42:04;26.57;;;19.00;;
7213;SDS011;3648;50.614;13.830;2022-11-18T14:44:37;30.23;;;22.53;;
7213;SDS011;3648;50.614;13.830;2022-11-18T14:47:05;27.53;;;19.37;;
7213;SDS011;3648;50.614;13.830;2022-11-18T14:49:40;25.83;;;19.50;;
7213;SDS011;3648;50.614;13.830;2022-11-18T14:52:08;23.63;;;17.80;;
7213;SDS011;3648;50.614;13.830;2022-11-18T14:54:36;24.80;;;18.77;;
7213;SDS011;3648;50.614;13.830;2022-11-18T14:57:03;24.60;;;18.13;;
7213;SDS011;3648;50.614;13.830;2022-11-18T14:59:31;23.60;;;17.83;;
7213;SDS011;3648;50.614;13.830;2022-11-18T15:01:59;25.23;;;16.80;;
7213;SDS011;3648;50.614;13.830;2022-11-18T15:04:26;20.07;;;16.30;;
7213;SDS011;3648;50.614;13.830;2022-11-18T15:06:53;23.47;;;17.07;;
7213;SDS011;3648;50.614;13.830;2022-11-18T15:09:20;22.40;;;16.57;;
7213;SDS011;3648;50.614;13.830;2022-11-18T15:11:47;21.50;;;16.23;;
7213;SDS011;3648;50.614;13.830;2022-11-18T15:14:14;21.57;;;15.40;;
7213;SDS011;3648;50.614;13.830;2022-11-18T15:16:41;21.10;;;16.47;;
7213;SDS011;3648;50.614;13.830;2022-11-18T15:19:11;20.23;;;15.20;;
7213;SDS011;3648;50.614;13.830;2022-11-18T15:21:39;21.67;;;15.47;;
7213;SDS011;3648;50.614;13.830;2022-11-18T15:24:06;18.13;;;14.27;;